Time;durP1;ratioP1;P1;durP2;ratioP2;P2;SDS_P1;SDS_P2;PMS_P1;PMS_P2;Temp;Humidity;BMP_temperature;BMP_pressure;BME280_temperature;BME280_humidity;BME280_pressure;Samples;Min_cycle;Max_cycle;Signal;HPM_P1;HPM_P2
2021/10/21 00:00:17;;;;;;;7.38;6.68;;;;;;;;;;2058719;28;20181;-68
2021/10/21 00:01:18;;;;;;;7.78;6.93;;;;;;;;;;2062191;28;20616;-69
2021/10/21 00:02:18;;;;;;;9.20;6.70;;;;;;;;;;2069930;28;20200;-67
2021/10/21 00:03:18;;;;;;;7.32;6.63;;;;;;;;;;2064529;28;20209;-68
2021/10/21 00:04:19;;;;;;;7.55;6.18;;;;;;;;;;2067840;28;20493;-68
2021/10/21 00:05:19;;;;;;;10.07;6.43;;;;;;;;;;2077403;28;20257;-68
2021/10/21 00:06:20;;;;;;;10.27;7.18;;;;;;;;;;2067748;28;20260;-67
2021/10/21 00:07:20;;;;;;;7.45;6.70;;;;;;;;;;2068672;28;20165;-68
2021/10/21 00:08:20;;;;;;;8.40;6.03;;;;;;;;;;2068645;28;20207;-68
2021/10/21 00:09:20;;;;;;;8.50;6.47;;;;;;;;;;2073526;28;20199;-69
2021/10/21 00:10:21;;;;;;;8.05;6.15;;;;;;;;;;2074204;28;20200;-69
2021/10/21 00:11:21;;;;;;;10.80;6.55;;;;;;;;;;2076447;28;20183;-68
2021/10/21 00:12:21;;;;;;;7.63;7.00;;;;;;;;;;2079255;28;20188;-69
2021/10/21 00:13:22;;;;;;;7.80;7.07;;;;;;;;;;2063836;28;20193;-69
2021/10/21 00:14:22;;;;;;;8.55;6.88;;;;;;;;;;2066572;28;20181;-69
2021/10/21 00:15:22;;;;;;;9.10;7.18;;;;;;;;;;2074359;28;20232;-69
2021/10/21 00:16:23;;;;;;;7.05;6.25;;;;;;;;;;2066095;28;20196;-68
2021/10/21 00:17:23;;;;;;;9.02;7.45;;;;;;;;;;2064263;28;20225;-69
2021/10/21 00:18:23;;;;;;;9.13;6.95;;;;;;;;;;2066610;28;20194;-69
2021/10/21 00:19:24;;;;;;;12.02;8.13;;;;;;;;;;2072806;28;20185;-70
2021/10/21 00:20:24;;;;;;;8.20;7.35;;;;;;;;;;2077813;28;20192;-69
2021/10/21 00:21:24;;;;;;;8.55;7.38;;;;;;;;;;2070941;28;20240;-69
2021/10/21 00:22:25;;;;;;;9.75;7.13;;;;;;;;;;2059335;28;20237;-68
2021/10/21 00:23:25;;;;;;;8.68;7.30;;;;;;;;;;2066346;28;20388;-69
2021/10/21 00:24:25;;;;;;;8.13;7.18;;;;;;;;;;2073458;28;20185;-67
2021/10/21 00:25:26;;;;;;;8.95;7.28;;;;;;;;;;2077943;28;20259;-68
2021/10/21 00:26:26;;;;;;;9.43;7.22;;;;;;;;;;2077683;28;20184;-68
2021/10/21 00:27:26;;;;;;;11.73;7.20;;;;;;;;;;2078811;28;20168;-68
2021/10/21 00:28:27;;;;;;;10.80;7.68;;;;;;;;;;2072385;28;20540;-69
2021/10/21 00:29:27;;;;;;;7.82;7.10;;;;;;;;;;2065748;28;20210;-72
2021/10/21 00:30:27;;;;;;;9.23;7.78;;;;;;;;;;2066292;28;20197;-69
2021/10/21 00:31:27;;;;;;;8.38;7.57;;;;;;;;;;2070244;28;20197;-66
2021/10/21 00:32:28;;;;;;;9.45;7.85;;;;;;;;;;2078118;28;20197;-67
2021/10/21 00:33:29;;;;;;;12.43;8.13;;;;;;;;;;2065251;28;20237;-70
2021/10/21 00:34:29;;;;;;;10.50;7.50;;;;;;;;;;2068240;28;20216;-68
2021/10/21 00:35:29;;;;;;;9.60;8.45;;;;;;;;;;2067876;28;20204;-70
2021/10/21 00:36:29;;;;;;;8.93;7.82;;;;;;;;;;2066837;28;20220;-69
2021/10/21 00:37:30;;;;;;;8.48;7.68;;;;;;;;;;2074801;28;20741;-67
2021/10/21 00:38:30;;;;;;;8.45;7.60;;;;;;;;;;2073242;28;20172;-67
2021/10/21 00:39:30;;;;;;;8.13;7.40;;;;;;;;;;2075721;28;20204;-67
2021/10/21 00:40:30;;;;;;;11.82;7.28;;;;;;;;;;2063776;28;20185;-66
2021/10/21 00:41:31;;;;;;;8.80;7.60;;;;;;;;;;2068534;28;20624;-69
2021/10/21 00:42:31;;;;;;;8.45;7.20;;;;;;;;;;2067703;28;20248;-68
2021/10/21 00:43:38;;;;;;;7.80;7.03;;;;;;;;;;2059247;28;20259;-68
2021/10/21 00:44:38;;;;;;;9.65;7.20;;;;;;;;;;2067042;28;20176;-68
2021/10/21 00:45:38;;;;;;;8.45;6.82;;;;;;;;;;2065751;28;20206;-67
2021/10/21 00:46:40;;;;;;;7.50;6.78;;;;;;;;;;2067441;28;20173;-67
2021/10/21 00:47:40;;;;;;;8.32;7.32;;;;;;;;;;2073752;28;20196;-69
2021/10/21 00:48:41;;;;;;;8.20;7.20;;;;;;;;;;2076102;28;20165;-68
2021/10/21 00:49:41;;;;;;;8.73;6.22;;;;;;;;;;2071065;28;20173;-69
2021/10/21 00:50:42;;;;;;;7.13;6.43;;;;;;;;;;2076619;28;20178;-68
2021/10/21 00:51:42;;;;;;;7.20;6.50;;;;;;;;;;2075849;28;20177;-67
2021/10/21 00:52:43;;;;;;;7.57;6.60;;;;;;;;;;2062237;28;20206;-67
2021/10/21 00:53:44;;;;;;;7.25;6.53;;;;;;;;;;2066820;28;20238;-67
2021/10/21 00:54:44;;;;;;;6.93;6.22;;;;;;;;;;2068676;28;20250;-71
2021/10/21 00:55:45;;;;;;;7.75;5.97;;;;;;;;;;2073172;28;20576;-67
2021/10/21 00:56:45;;;;;;;10.00;6.50;;;;;;;;;;2066988;28;20200;-68
2021/10/21 00:57:45;;;;;;;6.60;5.93;;;;;;;;;;2068789;28;20227;-68
2021/10/21 00:58:50;;;;;;;6.43;5.78;;;;;;;;;;2065446;28;20622;-70
2021/10/21 00:59:51;;;;;;;7.20;6.32;;;;;;;;;;2057686;28;20178;-70
2021/10/21 01:00:52;;;;;;;7.20;6.53;;;;;;;;;;2063921;28;20201;-67
2021/10/21 01:01:53;;;;;;;6.18;5.50;;;;;;;;;;2067238;28;20214;-68
2021/10/21 01:02:53;;;;;;;7.38;6.28;;;;;;;;;;2067046;28;20198;-65
2021/10/21 01:03:53;;;;;;;7.32;5.82;;;;;;;;;;2069239;28;20189;-66
2021/10/21 01:04:54;;;;;;;7.45;5.93;;;;;;;;;;2065007;28;20185;-67
2021/10/21 01:05:54;;;;;;;9.23;6.32;;;;;;;;;;2063928;28;20261;-70
2021/10/21 01:06:55;;;;;;;6.97;6.38;;;;;;;;;;2075107;28;20182;-69
2021/10/21 01:07:56;;;;;;;6.97;6.28;;;;;;;;;;2076413;28;20220;-68
2021/10/21 01:08:57;;;;;;;6.07;5.57;;;;;;;;;;2066712;28;20186;-68
2021/10/21 01:09:57;;;;;;;5.93;5.32;;;;;;;;;;2061175;28;20241;-68
2021/10/21 01:10:57;;;;;;;6.38;5.75;;;;;;;;;;2067204;28;20261;-68
2021/10/21 01:11:58;;;;;;;5.72;5.15;;;;;;;;;;2066477;28;20201;-66
2021/10/21 01:12:58;;;;;;;6.53;5.22;;;;;;;;;;2069923;28;20185;-68
2021/10/21 01:14:00;;;;;;;6.80;5.95;;;;;;;;;;2068677;28;20246;-68
2021/10/21 01:15:13;;;;;;;8.13;5.65;;;;;;;;;;2075870;28;20177;-68
2021/10/21 01:16:14;;;;;;;5.60;4.90;;;;;;;;;;2069194;28;20183;-70
2021/10/21 01:17:15;;;;;;;5.45;4.97;;;;;;;;;;2068133;28;20271;-69
2021/10/21 01:18:15;;;;;;;5.80;5.40;;;;;;;;;;2058777;28;20194;-72
2021/10/21 01:19:25;;;;;;;5.25;4.82;;;;;;;;;;2063084;28;20242;-70
2021/10/21 01:20:26;;;;;;;5.30;4.70;;;;;;;;;;2062480;28;20560;-69
2021/10/21 01:21:27;;;;;;;5.53;4.88;;;;;;;;;;2060165;28;20243;-68
2021/10/21 01:22:27;;;;;;;5.82;5.25;;;;;;;;;;2071065;28;20213;-67
2021/10/21 01:23:28;;;;;;;6.70;5.47;;;;;;;;;;2069776;28;20201;-68
2021/10/21 01:24:28;;;;;;;5.78;5.20;;;;;;;;;;2068107;28;20215;-68
2021/10/21 01:25:29;;;;;;;6.63;5.32;;;;;;;;;;2069190;28;20209;-68
2021/10/21 01:26:29;;;;;;;7.97;4.90;;;;;;;;;;2074849;28;20249;-67
2021/10/21 01:27:29;;;;;;;7.03;5.40;;;;;;;;;;2071362;28;20543;-66
2021/10/21 01:28:30;;;;;;;5.90;5.18;;;;;;;;;;2075054;28;20549;-68
2021/10/21 01:29:31;;;;;;;6.88;5.40;;;;;;;;;;2077396;28;20180;-68
2021/10/21 01:30:31;;;;;;;5.40;4.88;;;;;;;;;;2073662;28;20218;-65
2021/10/21 01:31:31;;;;;;;5.68;5.18;;;;;;;;;;2068538;28;20172;-67
2021/10/21 01:32:34;;;;;;;8.27;5.55;;;;;;;;;;2069224;28;20193;-67
2021/10/21 01:33:35;;;;;;;8.82;5.55;;;;;;;;;;2064804;28;20212;-67
2021/10/21 01:34:36;;;;;;;5.75;5.03;;;;;;;;;;2068540;28;20169;-68
2021/10/21 01:35:36;;;;;;;6.72;5.53;;;;;;;;;;2068033;28;20277;-68
2021/10/21 01:36:37;;;;;;;6.35;5.75;;;;;;;;;;2065283;28;20201;-67
2021/10/21 01:37:37;;;;;;;7.05;5.75;;;;;;;;;;2065074;28;20240;-68
2021/10/21 01:38:37;;;;;;;6.40;5.65;;;;;;;;;;2070573;28;20192;-67
2021/10/21 01:39:38;;;;;;;6.68;6.05;;;;;;;;;;2075606;28;20185;-67
2021/10/21 01:40:38;;;;;;;6.93;5.95;;;;;;;;;;2072597;28;20177;-67
2021/10/21 01:41:38;;;;;;;5.82;5.30;;;;;;;;;;2066755;28;20257;-70
2021/10/21 01:42:39;;;;;;;6.28;5.65;;;;;;;;;;2066876;28;20205;-68
2021/10/21 01:43:43;;;;;;;7.93;5.97;;;;;;;;;;2074804;28;20216;-67
2021/10/21 01:44:43;;;;;;;12.75;6.25;;;;;;;;;;2077160;28;20189;-67
2021/10/21 01:45:43;;;;;;;6.53;5.93;;;;;;;;;;2063765;28;20177;-67
2021/10/21 01:46:43;;;;;;;6.38;5.78;;;;;;;;;;2055932;28;20190;-68
2021/10/21 01:47:44;;;;;;;7.47;6.68;;;;;;;;;;2064654;28;20174;-67
2021/10/21 01:48:44;;;;;;;7.47;6.20;;;;;;;;;;2065437;28;20182;-66
2021/10/21 01:49:45;;;;;;;7.13;6.45;;;;;;;;;;2065014;28;20186;-68
2021/10/21 01:50:45;;;;;;;7.03;6.28;;;;;;;;;;2066194;28;20189;-69
2021/10/21 01:51:47;;;;;;;9.57;6.38;;;;;;;;;;2062842;28;20178;-68
2021/10/21 01:52:48;;;;;;;8.20;6.70;;;;;;;;;;2063273;28;20211;-67
2021/10/21 01:53:48;;;;;;;9.32;6.30;;;;;;;;;;2066572;28;20177;-69
2021/10/21 01:54:50;;;;;;;8.30;6.25;;;;;;;;;;2067621;28;20186;-68
2021/10/21 01:55:51;;;;;;;8.07;6.00;;;;;;;;;;2065928;28;20185;-68
2021/10/21 01:56:52;;;;;;;7.95;6.13;;;;;;;;;;2074432;28;20178;-68
2021/10/21 01:57:53;;;;;;;6.80;6.18;;;;;;;;;;2074291;28;20177;-69
2021/10/21 01:58:53;;;;;;;7.03;5.97;;;;;;;;;;2057993;28;20179;-68
2021/10/21 01:59:54;;;;;;;6.93;6.32;;;;;;;;;;2060205;28;20182;-70
2021/10/21 02:00:54;;;;;;;7.15;6.22;;;;;;;;;;2073428;28;20185;-65
2021/10/21 02:01:55;;;;;;;11.13;6.28;;;;;;;;;;2073738;28;20212;-68
2021/10/21 02:02:55;;;;;;;6.32;5.68;;;;;;;;;;2064784;28;20757;-68
2021/10/21 02:03:55;;;;;;;8.40;6.63;;;;;;;;;;2065518;28;20186;-68
2021/10/21 02:04:55;;;;;;;6.85;6.13;;;;;;;;;;2072493;28;20555;-68
2021/10/21 02:05:56;;;;;;;6.45;5.75;;;;;;;;;;2066788;28;20246;-69
2021/10/21 02:06:56;;;;;;;6.55;5.90;;;;;;;;;;2066746;28;20275;-69
2021/10/21 02:07:57;;;;;;;7.82;6.10;;;;;;;;;;2075395;28;20224;-68
2021/10/21 02:08:57;;;;;;;7.82;6.00;;;;;;;;;;2067612;28;20197;-69
2021/10/21 02:09:57;;;;;;;6.57;5.82;;;;;;;;;;2065004;28;20257;-68
2021/10/21 02:10:57;;;;;;;9.85;6.35;;;;;;;;;;2063762;28;20173;-68
2021/10/21 02:11:58;;;;;;;6.85;6.13;;;;;;;;;;2063816;28;20162;-66
2021/10/21 02:12:58;;;;;;;7.07;6.20;;;;;;;;;;2067555;28;20760;-67
2021/10/21 02:13:58;;;;;;;10.73;5.88;;;;;;;;;;2065982;28;20667;-70
2021/10/21 02:14:59;;;;;;;6.45;5.80;;;;;;;;;;2066279;28;20181;-69
2021/10/21 02:15:59;;;;;;;7.45;6.35;;;;;;;;;;2066855;28;20308;-68
2021/10/21 02:17:01;;;;;;;8.90;6.18;;;;;;;;;;2075600;28;20173;-69
2021/10/21 02:18:02;;;;;;;6.72;6.13;;;;;;;;;;2074278;28;20201;-68
2021/10/21 02:19:02;;;;;;;9.05;6.18;;;;;;;;;;2076051;28;20188;-67
2021/10/21 02:20:03;;;;;;;10.82;6.70;;;;;;;;;;2057274;28;20672;-69
2021/10/21 02:21:03;;;;;;;6.97;4.93;;;;;;;;;;2060989;28;20197;-68
2021/10/21 02:22:04;;;;;;;8.73;6.18;;;;;;;;;;2072746;28;20185;-69
2021/10/21 02:23:05;;;;;;;9.75;6.70;;;;;;;;;;2090520;22;20909;-57
2021/10/21 02:24:05;;;;;;;8.32;6.07;;;;;;;;;;2087789;28;20172;-57
2021/10/21 02:25:09;;;;;;;8.93;6.88;;;;;;;;;;2084650;28;20227;-56
2021/10/21 02:26:09;;;;;;;7.43;6.50;;;;;;;;;;2085516;28;20163;-56
2021/10/21 02:27:10;;;;;;;9.60;5.65;;;;;;;;;;2085732;28;20261;-55
2021/10/21 02:28:10;;;;;;;7.47;6.72;;;;;;;;;;2092585;28;20183;-53
2021/10/21 02:29:10;;;;;;;5.65;5.25;;;;;;;;;;2095701;28;20246;-55
2021/10/21 02:30:11;;;;;;;7.13;5.90;;;;;;;;;;2085224;28;20168;-55
2021/10/21 02:31:12;;;;;;;8.65;6.47;;;;;;;;;;2087112;28;20171;-57
2021/10/21 02:32:12;;;;;;;6.78;6.07;;;;;;;;;;2095292;28;20561;-56
2021/10/21 02:33:13;;;;;;;6.75;5.53;;;;;;;;;;2094060;28;20202;-53
2021/10/21 02:34:13;;;;;;;7.03;5.00;;;;;;;;;;2095672;28;20179;-57
2021/10/21 02:35:14;;;;;;;4.57;4.18;;;;;;;;;;2093499;28;20163;-56
2021/10/21 02:36:14;;;;;;;5.63;4.82;;;;;;;;;;2094881;28;20314;-52
2021/10/21 02:37:15;;;;;;;5.68;4.18;;;;;;;;;;2095325;28;20662;-53
2021/10/21 02:38:15;;;;;;;4.43;4.03;;;;;;;;;;2094591;28;20219;-54
2021/10/21 02:39:15;;;;;;;5.88;4.35;;;;;;;;;;2086403;28;20167;-55
2021/10/21 02:40:15;;;;;;;6.18;4.35;;;;;;;;;;2077359;28;20173;-56
2021/10/21 02:41:16;;;;;;;3.85;3.53;;;;;;;;;;2080392;28;20188;-56
2021/10/21 02:42:16;;;;;;;9.43;4.85;;;;;;;;;;2086250;28;20572;-56
2021/10/21 02:43:16;;;;;;;4.03;3.60;;;;;;;;;;2087245;28;20195;-56
2021/10/21 02:44:17;;;;;;;4.35;3.95;;;;;;;;;;2084601;28;20974;-54
2021/10/21 02:45:17;;;;;;;4.20;3.78;;;;;;;;;;2085279;28;20757;-54
2021/10/21 02:46:18;;;;;;;4.22;3.90;;;;;;;;;;2094840;28;20725;-52
2021/10/21 02:47:18;;;;;;;5.18;3.72;;;;;;;;;;2095396;28;20175;-53
2021/10/21 02:48:18;;;;;;;4.00;3.70;;;;;;;;;;2094168;28;20228;-56
2021/10/21 02:49:19;;;;;;;5.13;3.78;;;;;;;;;;2089541;28;20179;-54
2021/10/21 02:50:19;;;;;;;3.45;3.15;;;;;;;;;;2094084;28;20195;-53
2021/10/21 02:51:19;;;;;;;5.15;3.08;;;;;;;;;;2085997;28;20164;-55
2021/10/21 02:52:19;;;;;;;4.07;3.63;;;;;;;;;;2086794;28;20184;-55
2021/10/21 02:53:20;;;;;;;3.45;3.25;;;;;;;;;;2093265;28;20211;-56
2021/10/21 02:54:20;;;;;;;3.30;3.10;;;;;;;;;;2095065;28;20174;-53
2021/10/21 02:55:22;;;;;;;3.50;3.20;;;;;;;;;;2089608;28;20542;-53
2021/10/21 02:56:22;;;;;;;3.55;3.05;;;;;;;;;;2091210;28;20554;-55
2021/10/21 02:57:22;;;;;;;3.30;3.00;;;;;;;;;;2082775;28;20181;-56
2021/10/21 02:58:23;;;;;;;3.10;2.90;;;;;;;;;;2084029;28;20180;-54
2021/10/21 02:59:23;;;;;;;2.88;2.67;;;;;;;;;;2093938;28;20191;-53
2021/10/21 03:00:23;;;;;;;2.95;2.53;;;;;;;;;;2091726;28;20183;-54
2021/10/21 03:01:23;;;;;;;3.00;2.22;;;;;;;;;;2095453;28;20172;-54
2021/10/21 03:02:24;;;;;;;2.83;2.60;;;;;;;;;;2095179;28;20548;-53
2021/10/21 03:03:24;;;;;;;2.60;2.40;;;;;;;;;;2095649;28;20680;-52
2021/10/21 03:04:24;;;;;;;3.97;2.60;;;;;;;;;;2090584;28;20179;-56
2021/10/21 03:05:25;;;;;;;3.20;2.22;;;;;;;;;;2092973;28;20230;-53
2021/10/21 03:06:25;;;;;;;2.72;2.63;;;;;;;;;;2092877;28;20733;-52
2021/10/21 03:07:25;;;;;;;4.47;2.60;;;;;;;;;;2092609;28;20180;-55
2021/10/21 03:08:25;;;;;;;7.13;2.90;;;;;;;;;;2095113;28;20654;-55
2021/10/21 03:09:26;;;;;;;3.90;2.45;;;;;;;;;;2091298;28;20215;-56
2021/10/21 03:10:26;;;;;;;2.80;2.42;;;;;;;;;;2091710;28;20195;-55
2021/10/21 03:11:26;;;;;;;3.28;2.30;;;;;;;;;;2089851;28;20699;-54
2021/10/21 03:12:26;;;;;;;2.40;2.30;;;;;;;;;;2083764;28;20176;-52
2021/10/21 03:13:27;;;;;;;2.00;1.88;;;;;;;;;;2083013;28;20669;-53
2021/10/21 03:14:27;;;;;;;2.05;1.95;;;;;;;;;;2095618;28;20222;-54
2021/10/21 03:15:27;;;;;;;2.53;2.28;;;;;;;;;;2086661;28;20883;-56
2021/10/21 03:16:30;;;;;;;2.30;1.90;;;;;;;;;;2086233;28;20198;-56
2021/10/21 03:17:30;;;;;;;2.70;2.30;;;;;;;;;;2088105;28;20176;-54
2021/10/21 03:18:30;;;;;;;5.10;2.45;;;;;;;;;;2095330;28;20239;-58
2021/10/21 03:19:31;;;;;;;4.32;1.90;;;;;;;;;;2095114;28;20171;-53
2021/10/21 03:20:32;;;;;;;1.83;1.73;;;;;;;;;;2087308;28;21976;-55
2021/10/21 03:21:33;;;;;;;6.80;1.95;;;;;;;;;;2097079;28;20187;-55
2021/10/21 03:22:33;;;;;;;1.55;1.40;;;;;;;;;;2096143;28;20203;-53
2021/10/21 03:23:33;;;;;;;4.18;1.83;;;;;;;;;;2095320;28;20209;-51
2021/10/21 03:24:33;;;;;;;2.00;1.30;;;;;;;;;;2094403;28;20258;-53
2021/10/21 03:25:34;;;;;;;3.85;1.92;;;;;;;;;;2092931;28;20237;-52
2021/10/21 03:26:34;;;;;;;2.53;1.60;;;;;;;;;;2095958;28;20175;-53
2021/10/21 03:27:34;;;;;;;1.20;1.00;;;;;;;;;;2092374;28;20175;-52
2021/10/21 03:28:35;;;;;;;1.50;1.40;;;;;;;;;;2094670;28;20257;-53
2021/10/21 03:29:36;;;;;;;2.63;1.40;;;;;;;;;;2091377;28;20643;-53
2021/10/21 03:30:36;;;;;;;6.70;1.20;;;;;;;;;;2092361;28;20168;-54
2021/10/21 03:31:36;;;;;;;1.83;1.15;;;;;;;;;;2095771;28;20219;-53
2021/10/21 03:32:37;;;;;;;2.60;1.05;;;;;;;;;;2095897;28;20267;-52
2021/10/21 03:33:37;;;;;;;3.67;1.27;;;;;;;;;;2093863;28;20266;-54
2021/10/21 03:34:38;;;;;;;3.97;2.13;;;;;;;;;;2095203;28;20257;-53
2021/10/21 03:35:39;;;;;;;2.50;1.48;;;;;;;;;;2091969;28;20207;-55
2021/10/21 03:36:39;;;;;;;1.75;1.30;;;;;;;;;;2086805;28;20243;-52
2021/10/21 03:37:39;;;;;;;2.22;1.20;;;;;;;;;;2085618;28;20671;-54
2021/10/21 03:38:39;;;;;;;2.78;1.30;;;;;;;;;;2094356;28;20181;-53
2021/10/21 03:39:40;;;;;;;1.23;1.20;;;;;;;;;;2091599;28;20237;-52
2021/10/21 03:40:40;;;;;;;2.10;1.25;;;;;;;;;;2095393;28;20325;-53
2021/10/21 03:41:40;;;;;;;1.63;1.27;;;;;;;;;;2092827;28;20168;-51
2021/10/21 03:42:41;;;;;;;2.65;1.35;;;;;;;;;;2093690;28;20179;-52
2021/10/21 03:43:41;;;;;;;1.30;1.30;;;;;;;;;;2094609;28;20164;-51
2021/10/21 03:44:41;;;;;;;1.52;1.40;;;;;;;;;;2095122;28;20566;-54
2021/10/21 03:45:42;;;;;;;2.78;1.30;;;;;;;;;;2093506;28;20167;-53
2021/10/21 03:46:42;;;;;;;3.75;1.20;;;;;;;;;;2092192;28;20175;-52
2021/10/21 03:47:42;;;;;;;1.60;1.50;;;;;;;;;;2092204;28;20183;-53
2021/10/21 03:48:43;;;;;;;1.45;1.25;;;;;;;;;;2095351;28;20172;-53
2021/10/21 03:49:43;;;;;;;2.88;1.55;;;;;;;;;;2093666;28;20194;-55
2021/10/21 03:50:43;;;;;;;1.65;1.55;;;;;;;;;;2084421;28;20245;-53
2021/10/21 03:51:43;;;;;;;2.83;1.60;;;;;;;;;;2082281;28;20177;-53
2021/10/21 03:52:44;;;;;;;1.77;1.67;;;;;;;;;;2095137;28;20714;-53
2021/10/21 03:53:44;;;;;;;1.83;1.33;;;;;;;;;;2093442;28;20179;-50
2021/10/21 03:54:45;;;;;;;3.13;1.80;;;;;;;;;;2075131;28;20575;-53
2021/10/21 03:55:45;;;;;;;2.22;1.77;;;;;;;;;;2075712;28;20547;-55
2021/10/21 03:56:45;;;;;;;2.13;1.60;;;;;;;;;;2085843;28;20656;-53
2021/10/21 03:57:45;;;;;;;1.80;1.70;;;;;;;;;;2092955;28;20171;-54
2021/10/21 03:58:46;;;;;;;2.60;1.50;;;;;;;;;;2093016;28;20175;-52
2021/10/21 03:59:46;;;;;;;1.70;1.60;;;;;;;;;;2086528;28;20983;-54
2021/10/21 04:00:46;;;;;;;1.60;1.23;;;;;;;;;;2085775;28;20172;-53
2021/10/21 04:01:47;;;;;;;3.35;1.75;;;;;;;;;;2099792;28;20178;-51
2021/10/21 04:02:47;;;;;;;2.55;1.73;;;;;;;;;;2097028;28;20179;-53
2021/10/21 04:03:47;;;;;;;5.47;1.75;;;;;;;;;;2094166;28;20182;-54
2021/10/21 04:04:47;;;;;;;3.50;1.77;;;;;;;;;;2094831;28;20180;-56
2021/10/21 04:05:48;;;;;;;1.88;1.52;;;;;;;;;;2089017;28;20175;-55
2021/10/21 04:06:48;;;;;;;3.28;1.98;;;;;;;;;;2083779;28;20179;-54
2021/10/21 04:07:48;;;;;;;1.95;1.63;;;;;;;;;;2085910;28;20266;-52
2021/10/21 04:08:49;;;;;;;3.70;1.73;;;;;;;;;;2084858;28;20217;-55
2021/10/21 04:09:49;;;;;;;1.73;1.63;;;;;;;;;;2093991;28;20228;-55
2021/10/21 04:10:49;;;;;;;1.63;1.52;;;;;;;;;;2094684;28;21911;-54
2021/10/21 04:11:50;;;;;;;3.35;1.70;;;;;;;;;;2100592;28;20183;-56
2021/10/21 04:12:50;;;;;;;2.25;1.65;;;;;;;;;;2096181;28;20195;-52
2021/10/21 04:13:50;;;;;;;1.90;1.65;;;;;;;;;;2093452;28;20671;-51
2021/10/21 04:14:51;;;;;;;2.10;1.65;;;;;;;;;;2089356;28;20175;-51
2021/10/21 04:15:51;;;;;;;2.20;1.70;;;;;;;;;;2091900;28;20196;-53
2021/10/21 04:16:52;;;;;;;1.60;1.50;;;;;;;;;;2092287;28;20167;-51
2021/10/21 04:17:52;;;;;;;3.65;1.70;;;;;;;;;;2097894;28;20199;-55
2021/10/21 04:18:53;;;;;;;5.22;1.80;;;;;;;;;;2097352;28;20171;-51
2021/10/21 04:19:53;;;;;;;2.80;2.35;;;;;;;;;;2098242;28;20171;-51
2021/10/21 04:20:53;;;;;;;4.40;2.60;;;;;;;;;;2092166;28;20708;-51
2021/10/21 04:21:53;;;;;;;2.53;2.33;;;;;;;;;;2094678;28;20175;-51
2021/10/21 04:22:54;;;;;;;3.10;2.40;;;;;;;;;;2091440;28;20198;-50
2021/10/21 04:23:55;;;;;;;4.10;2.17;;;;;;;;;;2085385;28;20175;-51
2021/10/21 04:24:55;;;;;;;4.15;2.30;;;;;;;;;;2083463;28;20214;-51
2021/10/21 04:25:55;;;;;;;5.95;2.00;;;;;;;;;;2092360;28;20174;-51
2021/10/21 04:26:55;;;;;;;1.58;1.48;;;;;;;;;;2083623;28;20741;-51
2021/10/21 04:27:55;;;;;;;2.70;2.00;;;;;;;;;;2085379;28;20195;-51
2021/10/21 04:28:56;;;;;;;2.47;1.88;;;;;;;;;;2074885;28;20184;-51
2021/10/21 04:29:56;;;;;;;3.25;1.80;;;;;;;;;;2084066;28;20168;-52
2021/10/21 04:30:56;;;;;;;3.60;2.20;;;;;;;;;;2094442;28;20179;-51
2021/10/21 04:31:56;;;;;;;4.88;2.50;;;;;;;;;;2084143;28;20164;-54
2021/10/21 04:32:57;;;;;;;5.30;2.08;;;;;;;;;;2085854;28;20194;-54
2021/10/21 04:33:57;;;;;;;4.40;2.15;;;;;;;;;;2093743;28;20662;-54
2021/10/21 04:34:58;;;;;;;4.50;2.00;;;;;;;;;;2084257;28;20168;-55
2021/10/21 04:35:59;;;;;;;4.18;2.22;;;;;;;;;;2077748;28;20440;-55
2021/10/21 04:37:00;;;;;;;2.95;1.80;;;;;;;;;;2084355;28;20203;-55
2021/10/21 04:38:02;;;;;;;2.78;2.10;;;;;;;;;;2093698;28;20582;-53
2021/10/21 04:39:02;;;;;;;2.88;2.20;;;;;;;;;;2092675;28;20182;-51
2021/10/21 04:40:03;;;;;;;2.80;2.20;;;;;;;;;;2095025;28;20185;-52
2021/10/21 04:41:03;;;;;;;3.40;2.30;;;;;;;;;;2082976;28;20175;-52
2021/10/21 04:42:04;;;;;;;4.82;2.20;;;;;;;;;;2083802;28;20177;-51
2021/10/21 04:43:04;;;;;;;2.50;2.28;;;;;;;;;;2092438;28;20195;-51
2021/10/21 04:44:04;;;;;;;5.47;2.40;;;;;;;;;;2093843;28;20199;-54
2021/10/21 04:45:05;;;;;;;4.43;2.45;;;;;;;;;;2083217;28;20180;-52
2021/10/21 04:46:05;;;;;;;4.97;2.22;;;;;;;;;;2083316;28;20805;-53
2021/10/21 04:47:05;;;;;;;5.18;2.40;;;;;;;;;;2084922;28;20215;-52
2021/10/21 04:48:06;;;;;;;4.75;2.40;;;;;;;;;;2095431;28;20202;-52
2021/10/21 04:49:06;;;;;;;6.25;2.30;;;;;;;;;;2082797;28;20179;-52
2021/10/21 04:50:06;;;;;;;3.75;2.75;;;;;;;;;;2074583;28;20177;-52
2021/10/21 04:51:06;;;;;;;2.25;2.05;;;;;;;;;;2075796;28;20255;-53
2021/10/21 04:52:07;;;;;;;3.30;2.30;;;;;;;;;;2083598;28;20198;-50
2021/10/21 04:53:07;;;;;;;5.15;2.50;;;;;;;;;;2093708;28;20195;-50
2021/10/21 04:54:08;;;;;;;2.75;2.20;;;;;;;;;;2090868;28;20365;-54
2021/10/21 04:55:08;;;;;;;4.47;2.30;;;;;;;;;;2085242;28;20197;-53
2021/10/21 04:56:10;;;;;;;3.55;2.45;;;;;;;;;;2083494;28;20263;-52
2021/10/21 04:57:11;;;;;;;4.18;2.00;;;;;;;;;;2093727;28;20649;-52
2021/10/21 04:58:11;;;;;;;4.25;2.40;;;;;;;;;;2083505;28;20171;-53
2021/10/21 04:59:11;;;;;;;2.90;2.50;;;;;;;;;;2074448;28;20728;-54
2021/10/21 05:00:12;;;;;;;4.05;2.40;;;;;;;;;;2084356;28;20198;-50
2021/10/21 05:01:12;;;;;;;2.95;2.35;;;;;;;;;;2092462;28;20224;-51
2021/10/21 05:02:12;;;;;;;5.88;1.98;;;;;;;;;;2091343;28;20171;-52
2021/10/21 05:03:13;;;;;;;3.05;2.25;;;;;;;;;;2093666;28;20196;-52
2021/10/21 05:04:13;;;;;;;4.32;2.28;;;;;;;;;;2093876;28;20519;-51
2021/10/21 05:05:13;;;;;;;4.53;2.13;;;;;;;;;;2091045;28;20179;-53
2021/10/21 05:06:13;;;;;;;4.28;2.00;;;;;;;;;;2086686;28;20297;-51
2021/10/21 05:07:14;;;;;;;4.43;2.30;;;;;;;;;;2094243;28;20167;-52
2021/10/21 05:08:14;;;;;;;2.63;1.98;;;;;;;;;;2090888;28;20203;-54
2021/10/21 05:09:15;;;;;;;2.08;1.63;;;;;;;;;;2096010;28;20189;-56
2021/10/21 05:10:15;;;;;;;5.50;2.25;;;;;;;;;;2090404;28;20172;-55
2021/10/21 05:11:15;;;;;;;4.40;2.00;;;;;;;;;;2094374;28;20180;-55
2021/10/21 05:12:16;;;;;;;2.45;2.00;;;;;;;;;;2090177;28;20204;-53
2021/10/21 05:13:16;;;;;;;3.80;2.42;;;;;;;;;;2095282;28;20178;-53
2021/10/21 05:14:16;;;;;;;3.13;2.10;;;;;;;;;;2085581;28;20258;-54
2021/10/21 05:15:18;;;;;;;4.25;2.33;;;;;;;;;;2086826;28;20168;-56
2021/10/21 05:16:18;;;;;;;2.72;2.08;;;;;;;;;;2083384;28;20204;-57
2021/10/21 05:17:19;;;;;;;8.98;2.40;;;;;;;;;;2087566;28;20636;-53
2021/10/21 05:18:19;;;;;;;3.90;2.50;;;;;;;;;;2092626;28;20830;-53
2021/10/21 05:19:19;;;;;;;3.33;2.58;;;;;;;;;;2093616;28;20198;-52
2021/10/21 05:20:20;;;;;;;3.47;2.15;;;;;;;;;;2082537;28;20191;-56
2021/10/21 05:21:20;;;;;;;2.85;2.33;;;;;;;;;;2084869;28;20172;-54
2021/10/21 05:22:20;;;;;;;7.53;3.15;;;;;;;;;;2085367;28;20175;-55
2021/10/21 05:23:21;;;;;;;2.88;2.30;;;;;;;;;;2084772;28;20208;-55
2021/10/21 05:24:21;;;;;;;6.70;3.10;;;;;;;;;;2093231;28;20174;-55
2021/10/21 05:25:21;;;;;;;4.00;2.90;;;;;;;;;;2093905;28;20181;-56
2021/10/21 05:26:21;;;;;;;6.28;3.33;;;;;;;;;;2093576;28;20207;-52
2021/10/21 05:27:22;;;;;;;7.15;3.38;;;;;;;;;;2093679;28;20178;-56
2021/10/21 05:28:22;;;;;;;6.82;3.10;;;;;;;;;;2085397;28;20199;-55
2021/10/21 05:29:23;;;;;;;6.95;3.00;;;;;;;;;;2074635;28;20243;-56
2021/10/21 05:30:23;;;;;;;6.00;3.20;;;;;;;;;;2085892;28;20179;-54
2021/10/21 05:31:23;;;;;;;3.95;2.80;;;;;;;;;;2092089;28;20174;-52
2021/10/21 05:32:23;;;;;;;4.25;3.35;;;;;;;;;;2092800;28;20216;-54
2021/10/21 05:33:26;;;;;;;5.03;3.08;;;;;;;;;;2095329;28;20240;-55
2021/10/21 05:34:26;;;;;;;6.47;3.38;;;;;;;;;;2095985;28;20179;-53
2021/10/21 05:35:26;;;;;;;3.83;3.42;;;;;;;;;;2093983;28;20234;-56
2021/10/21 05:36:26;;;;;;;8.30;3.35;;;;;;;;;;2085467;28;20172;-53
2021/10/21 05:37:27;;;;;;;5.03;2.90;;;;;;;;;;2084398;28;20179;-54
2021/10/21 05:38:27;;;;;;;4.78;2.92;;;;;;;;;;2083419;28;20201;-57
2021/10/21 05:39:30;;;;;;;8.02;3.42;;;;;;;;;;2085102;28;20199;-56
2021/10/21 05:40:30;;;;;;;5.25;3.20;;;;;;;;;;2092052;28;20181;-52
2021/10/21 05:41:31;;;;;;;9.45;4.25;;;;;;;;;;2092642;28;20382;-53
2021/10/21 05:42:31;;;;;;;7.68;3.45;;;;;;;;;;2085096;28;20278;-53
2021/10/21 05:43:31;;;;;;;4.65;3.65;;;;;;;;;;2085034;28;20182;-54
2021/10/21 05:44:32;;;;;;;5.85;3.78;;;;;;;;;;2093922;28;20229;-55
2021/10/21 05:45:32;;;;;;;8.80;3.40;;;;;;;;;;2085441;28;20603;-53
2021/10/21 05:46:33;;;;;;;5.40;3.47;;;;;;;;;;2075292;28;20219;-51
2021/10/21 05:47:35;;;;;;;6.85;4.00;;;;;;;;;;2083090;28;20656;-52
2021/10/21 05:48:35;;;;;;;5.85;3.75;;;;;;;;;;2083550;28;20290;-52
2021/10/21 05:49:36;;;;;;;9.63;4.28;;;;;;;;;;2085111;28;20175;-56
2021/10/21 05:50:36;;;;;;;9.27;3.75;;;;;;;;;;2091893;28;20199;-56
2021/10/21 05:51:36;;;;;;;8.00;4.30;;;;;;;;;;2093239;28;20252;-53
2021/10/21 05:52:37;;;;;;;4.82;3.90;;;;;;;;;;2094564;28;20210;-55
2021/10/21 05:53:37;;;;;;;5.63;3.63;;;;;;;;;;2095221;28;20183;-58
2021/10/21 05:54:37;;;;;;;5.32;3.88;;;;;;;;;;2089309;28;20179;-55
2021/10/21 05:55:37;;;;;;;5.80;3.78;;;;;;;;;;2083507;28;20675;-56
2021/10/21 05:56:38;;;;;;;6.15;3.67;;;;;;;;;;2095223;28;20242;-53
2021/10/21 05:57:38;;;;;;;4.50;3.40;;;;;;;;;;2091769;28;20178;-54
2021/10/21 05:58:39;;;;;;;4.65;3.38;;;;;;;;;;2096115;28;20182;-55
2021/10/21 05:59:39;;;;;;;4.82;3.00;;;;;;;;;;2094065;28;20189;-55
2021/10/21 06:00:39;;;;;;;4.30;3.00;;;;;;;;;;2081409;28;20184;-55
2021/10/21 06:01:40;;;;;;;4.93;3.70;;;;;;;;;;2084757;28;20179;-53
2021/10/21 06:02:40;;;;;;;6.32;3.50;;;;;;;;;;2094870;28;20170;-56